sensor_id;sensor_type;location;lat;lon;timestamp;pressure;altitude;pressure_sealevel;temperature;humidity
71573;BME280;59408;51.032;9.410;2023-04-27T00:01:36;99292.75;;;2.83;91.16
71573;BME280;59408;51.032;9.410;2023-04-27T00:04:03;99296.50;;;2.87;91.91
71573;BME280;59408;51.032;9.410;2023-04-27T00:06:30;99296.50;;;2.87;91.56
71573;BME280;59408;51.032;9.410;2023-04-27T00:08:57;99292.47;;;2.85;89.46
71573;BME280;59408;51.032;9.410;2023-04-27T00:11:24;99286.00;;;2.86;90.42
71573;BME280;59408;51.032;9.410;2023-04-27T00:13:50;99294.88;;;2.86;90.71
71573;BME280;59408;51.032;9.410;2023-04-27T00:16:17;99280.41;;;2.82;90.24
71573;BME280;59408;51.032;9.410;2023-04-27T00:18:45;99290.06;;;2.83;89.88
71573;BME280;59408;51.032;9.410;2023-04-27T00:21:11;99292.47;;;2.85;89.76
71573;BME280;59408;51.032;9.410;2023-04-27T00:23:38;99287.09;;;2.85;90.67
71573;BME280;59408;51.032;9.410;2023-04-27T00:26:05;99287.66;;;2.82;91.42
71573;BME280;59408;51.032;9.410;2023-04-27T00:28:31;99287.13;;;2.80;92.72
71573;BME280;59408;51.032;9.410;2023-04-27T00:30:58;99285.00;;;2.76;91.24
71573;BME280;59408;51.032;9.410;2023-04-27T00:33:25;99285.00;;;2.76;91.51
71573;BME280;59408;51.032;9.410;2023-04-27T00:35:53;99283.38;;;2.75;91.24
71573;BME280;59408;51.032;9.410;2023-04-27T00:38:19;99278.00;;;2.75;91.70
71573;BME280;59408;51.032;9.410;2023-04-27T00:40:46;99279.88;;;2.75;92.64
71573;BME280;59408;51.032;9.410;2023-04-27T00:43:13;99284.47;;;2.74;92.21
71573;BME280;59408;51.032;9.410;2023-04-27T00:45:41;99285.31;;;2.70;92.19
71573;BME280;59408;51.032;9.410;2023-04-27T00:48:08;99275.63;;;2.69;92.79
71573;BME280;59408;51.032;9.410;2023-04-27T00:50:35;99279.41;;;2.68;93.38
71573;BME280;59408;51.032;9.410;2023-04-27T00:53:04;99277.56;;;2.63;94.00
71573;BME280;59408;51.032;9.410;2023-04-27T00:55:31;99280.78;;;2.65;93.44
71573;BME280;59408;51.032;9.410;2023-04-27T00:57:57;99272.69;;;2.65;93.24
71573;BME280;59408;51.032;9.410;2023-04-27T01:00:24;99275.91;;;2.67;93.93
71573;BME280;59408;51.032;9.410;2023-04-27T01:02:51;99277.53;;;2.68;93.47
71573;BME280;59408;51.032;9.410;2023-04-27T01:05:18;99277.81;;;2.67;93.25
71573;BME280;59408;51.032;9.410;2023-04-27T01:07:45;99279.16;;;2.64;93.69
71573;BME280;59408;51.032;9.410;2023-04-27T01:10:13;99275.09;;;2.67;93.38
71573;BME280;59408;51.032;9.410;2023-04-27T01:12:39;99276.72;;;2.68;94.36
71573;BME280;59408;51.032;9.410;2023-04-27T01:15:07;99284.78;;;2.68;94.57
71573;BME280;59408;51.032;9.410;2023-04-27T01:17:34;99277.28;;;2.65;94.57
71573;BME280;59408;51.032;9.410;2023-04-27T01:20:01;99277.28;;;2.65;95.54
71573;BME280;59408;51.032;9.410;2023-04-27T01:22:27;99282.16;;;2.63;95.74
71573;BME280;59408;51.032;9.410;2023-04-27T01:24:55;99282.97;;;2.63;95.20
71573;BME280;59408;51.032;9.410;2023-04-27T01:27:22;99283.50;;;2.60;95.47
71573;BME280;59408;51.032;9.410;2023-04-27T01:29:49;99287.81;;;2.61;96.12
71573;BME280;59408;51.032;9.410;2023-04-27T01:32:15;99283.22;;;2.62;95.53
71573;BME280;59408;51.032;9.410;2023-04-27T01:34:42;99282.19;;;2.58;94.90
71573;BME280;59408;51.032;9.410;2023-04-27T01:37:08;99285.94;;;2.57;95.53
71573;BME280;59408;51.032;9.410;2023-04-27T01:39:35;99289.44;;;2.57;96.33
71573;BME280;59408;51.032;9.410;2023-04-27T01:42:04;99292.72;;;2.54;96.27
71573;BME280;59408;51.032;9.410;2023-04-27T01:44:30;99290.56;;;2.51;96.86
71573;BME280;59408;51.032;9.410;2023-04-27T01:46:57;99293.00;;;2.48;97.46
71573;BME280;59408;51.032;9.410;2023-04-27T01:49:23;99288.19;;;2.45;96.38
71573;BME280;59408;51.032;9.410;2023-04-27T01:51:50;99302.22;;;2.42;96.49
71573;BME280;59408;51.032;9.410;2023-04-27T01:54:17;99305.19;;;2.40;97.14
71573;BME280;59408;51.032;9.410;2023-04-27T01:56:43;99298.44;;;2.43;98.17
71573;BME280;59408;51.032;9.410;2023-04-27T01:59:11;99307.06;;;2.45;97.96
71573;BME280;59408;51.032;9.410;2023-04-27T02:01:38;99302.97;;;2.47;98.90
71573;BME280;59408;51.032;9.410;2023-04-27T02:04:05;99313.75;;;2.47;98.54
71573;BME280;59408;51.032;9.410;2023-04-27T02:06:32;99304.06;;;2.46;98.02
71573;BME280;59408;51.032;9.410;2023-04-27T02:08:58;99305.66;;;2.47;96.83
71573;BME280;59408;51.032;9.410;2023-04-27T02:11:25;99295.47;;;2.44;96.11
71573;BME280;59408;51.032;9.410;2023-04-27T02:13:51;99304.09;;;2.41;96.49
71573;BME280;59408;51.032;9.410;2023-04-27T02:16:19;99299.25;;;2.38;96.69
71573;BME280;59408;51.032;9.410;2023-04-27T02:18:46;99305.22;;;2.30;96.18
71573;BME280;59408;51.032;9.410;2023-04-27T02:21:13;99318.97;;;2.28;95.56
71573;BME280;59408;51.032;9.410;2023-04-27T02:23:39;99310.66;;;2.25;96.17
71573;BME280;59408;51.032;9.410;2023-04-27T02:26:06;99318.19;;;2.23;96.31
71573;BME280;59408;51.032;9.410;2023-04-27T02:28:33;99317.38;;;2.22;96.84
71573;BME280;59408;51.032;9.410;2023-04-27T02:31:00;99325.47;;;2.22;97.58
71573;BME280;59408;51.032;9.410;2023-04-27T02:33:28;99320.88;;;2.23;98.11
71573;BME280;59408;51.032;9.410;2023-04-27T02:35:54;99330.03;;;2.27;98.04
71573;BME280;59408;51.032;9.410;2023-04-27T02:38:21;99331.59;;;2.28;97.49
71573;BME280;59408;51.032;9.410;2023-04-27T02:40:52;99335.09;;;2.28;98.05
71573;BME280;59408;51.032;9.410;2023-04-27T02:43:18;99330.25;;;2.30;97.93
71573;BME280;59408;51.032;9.410;2023-04-27T02:45:45;99342.91;;;2.30;98.18
71573;BME280;59408;51.032;9.410;2023-04-27T02:48:12;99349.91;;;2.31;97.87
71573;BME280;59408;51.032;9.410;2023-04-27T02:50:40;99343.44;;;2.32;97.46
71573;BME280;59408;51.032;9.410;2023-04-27T02:53:07;99340.22;;;2.30;98.59
71573;BME280;59408;51.032;9.410;2023-04-27T02:55:34;99337.00;;;2.28;98.80
71573;BME280;59408;51.032;9.410;2023-04-27T02:58:01;99340.25;;;2.25;99.04
71573;BME280;59408;51.032;9.410;2023-04-27T03:00:27;99341.88;;;2.21;98.48
71573;BME280;59408;51.032;9.410;2023-04-27T03:02:54;99351.34;;;2.18;99.36
71573;BME280;59408;51.032;9.410;2023-04-27T03:05:24;99343.78;;;2.15;98.69
71573;BME280;59408;51.032;9.410;2023-04-27T03:07:52;99346.75;;;2.14;98.94
71573;BME280;59408;51.032;9.410;2023-04-27T03:10:18;99354.03;;;2.13;99.32
71573;BME280;59408;51.032;9.410;2023-04-27T03:12:45;99352.16;;;2.14;99.14
71573;BME280;59408;51.032;9.410;2023-04-27T03:15:12;99352.41;;;2.17;98.96
71573;BME280;59408;51.032;9.410;2023-04-27T03:17:38;99345.13;;;2.18;98.64
71573;BME280;59408;51.032;9.410;2023-04-27T03:20:06;99342.97;;;2.20;98.87
71573;BME280;59408;51.032;9.410;2023-04-27T03:22:33;99334.88;;;2.20;98.53
71573;BME280;59408;51.032;9.410;2023-04-27T03:25:01;99332.75;;;2.17;98.02
71573;BME280;59408;51.032;9.410;2023-04-27T03:27:27;99341.91;;;2.11;97.51
71573;BME280;59408;51.032;9.410;2023-04-27T03:29:54;99343.53;;;2.12;97.37
71573;BME280;59408;51.032;9.410;2023-04-27T03:32:21;99337.91;;;2.08;98.21
71573;BME280;59408;51.032;9.410;2023-04-27T03:34:47;99340.63;;;2.03;97.79
71573;BME280;59408;51.032;9.410;2023-04-27T03:37:14;99344.41;;;1.97;97.78
71573;BME280;59408;51.032;9.410;2023-04-27T03:39:41;99339.03;;;1.92;98.33
71573;BME280;59408;51.032;9.410;2023-04-27T03:42:09;99343.09;;;1.89;98.54
71573;BME280;59408;51.032;9.410;2023-04-27T03:44:35;99341.47;;;1.88;99.36
71573;BME280;59408;51.032;9.410;2023-04-27T03:47:02;99342.84;;;1.86;99.53
71573;BME280;59408;51.032;9.410;2023-04-27T03:49:28;99327.22;;;1.83;100.00
71573;BME280;59408;51.032;9.410;2023-04-27T03:51:55;99341.78;;;1.77;100.00
71573;BME280;59408;51.032;9.410;2023-04-27T03:54:22;99335.06;;;1.74;100.00
71573;BME280;59408;51.032;9.410;2023-04-27T03:56:48;99346.13;;;1.73;100.00
71573;BME280;59408;51.032;9.410;2023-04-27T03:59:16;99344.50;;;1.72;100.00
71573;BME280;59408;51.032;9.410;2023-04-27T04:01:43;99346.38;;;1.71;100.00
71573;BME280;59408;51.032;9.410;2023-04-27T04:04:09;99337.50;;;1.71;100.00
71573;BME280;59408;51.032;9.410;2023-04-27T04:06:36;99325.66;;;1.67;100.00
71573;BME280;59408;51.032;9.410;2023-04-27T04:09:03;99328.38;;;1.61;100.00
71573;BME280;59408;51.032;9.410;2023-04-27T04:11:30;99336.19;;;1.58;100.00
71573;BME280;59408;51.032;9.410;2023-04-27T04:13:56;99333.78;;;1.51;100.00
71573;BME280;59408;51.032;9.410;2023-04-27T04:16:24;99342.66;;;1.47;99.81
71573;BME280;59408;51.032;9.410;2023-04-27T04:18:51;99338.63;;;1.44;100.00
71573;BME280;59408;51.032;9.410;2023-04-27T04:21:18;99338.63;;;1.39;100.00
71573;BME280;59408;51.032;9.410;2023-04-27T04:23:44;99320.91;;;1.33;100.00
71573;BME280;59408;51.032;9.410;2023-04-27T04:26:11;99327.91;;;1.29;100.00
71573;BME280;59408;51.032;9.410;2023-04-27T04:28:37;99335.72;;;1.25;100.00
71573;BME280;59408;51.032;9.410;2023-04-27T04:31:04;99324.97;;;1.25;100.00
71573;BME280;59408;51.032;9.410;2023-04-27T04:33:32;99325.78;;;1.26;100.00
71573;BME280;59408;51.032;9.410;2023-04-27T04:36:02;99323.09;;;1.26;100.00
71573;BME280;59408;51.032;9.410;2023-04-27T04:38:28;99324.16;;;1.25;100.00
71573;BME280;59408;51.032;9.410;2023-04-27T04:40:55;99332.19;;;1.20;100.00
71573;BME280;59408;51.032;9.410;2023-04-27T04:43:22;99340.56;;;1.18;100.00
71573;BME280;59408;51.032;9.410;2023-04-27T04:45:48;99360.69;;;1.21;100.00
71573;BME280;59408;51.032;9.410;2023-04-27T04:48:15;99364.72;;;1.29;100.00
71573;BME280;59408;51.032;9.410;2023-04-27T04:50:43;99363.38;;;1.36;100.00
71573;BME280;59408;51.032;9.410;2023-04-27T04:53:10;99373.59;;;1.44;100.00
71573;BME280;59408;51.032;9.410;2023-04-27T04:55:36;99360.94;;;1.50;100.00
71573;BME280;59408;51.032;9.410;2023-04-27T04:58:03;99373.56;;;1.59;100.00
71573;BME280;59408;51.032;9.410;2023-04-27T05:00:30;99374.88;;;1.67;100.00
71573;BME280;59408;51.032;9.410;2023-04-27T05:02:56;99378.63;;;1.76;100.00
71573;BME280;59408;51.032;9.410;2023-04-27T05:05:23;99373.75;;;1.83;100.00
71573;BME280;59408;51.032;9.410;2023-04-27T05:07:51;99379.13;;;1.88;100.00
71573;BME280;59408;51.032;9.410;2023-04-27T05:10:18;99364.84;;;1.93;100.00
71573;BME280;59408;51.032;9.410;2023-04-27T05:12:44;99369.16;;;1.99;100.00
71573;BME280;59408;51.032;9.410;2023-04-27T05:15:11;99379.34;;;2.02;99.08
71573;BME280;59408;51.032;9.410;2023-04-27T05:17:38;99373.94;;;2.12;99.52
71573;BME280;59408;51.032;9.410;2023-04-27T05:20:06;99372.81;;;2.23;99.10
71573;BME280;59408;51.032;9.410;2023-04-27T05:22:32;99378.41;;;2.37;99.80
71573;BME280;59408;51.032;9.410;2023-04-27T05:25:01;99373.00;;;2.42;100.00
71573;BME280;59408;51.032;9.410;2023-04-27T05:27:27;99373.50;;;2.54;99.05
71573;BME280;59408;51.032;9.410;2023-04-27T05:29:54;99376.41;;;2.58;97.11
71573;BME280;59408;51.032;9.410;2023-04-27T05:32:20;99380.13;;;2.67;97.04
71573;BME280;59408;51.032;9.410;2023-04-27T05:34:47;99382.56;;;2.68;95.79
71573;BME280;59408;51.032;9.410;2023-04-27T05:37:15;99382.22;;;2.75;94.42
71573;BME280;59408;51.032;9.410;2023-04-27T05:39:41;99386.28;;;2.78;93.23
71573;BME280;59408;51.032;9.410;2023-04-27T05:42:09;99394.00;;;2.89;94.33
71573;BME280;59408;51.032;9.410;2023-04-27T05:44:36;99399.34;;;2.99;94.38
71573;BME280;59408;51.032;9.410;2023-04-27T05:47:02;99391.69;;;3.11;94.84
71573;BME280;59408;51.032;9.410;2023-04-27T05:49:29;99390.00;;;3.21;94.71
71573;BME280;59408;51.032;9.410;2023-04-27T05:51:56;99386.13;;;3.37;93.69
71573;BME280;59408;51.032;9.410;2023-04-27T05:54:22;99390.66;;;3.41;90.63
71573;BME280;59408;51.032;9.410;2023-04-27T05:56:49;99390.28;;;3.53;87.29
71573;BME280;59408;51.032;9.410;2023-04-27T05:59:17;99392.88;;;3.63;88.10
71573;BME280;59408;51.032;9.410;2023-04-27T06:01:44;99398.97;;;3.74;88.92
71573;BME280;59408;51.032;9.410;2023-04-27T06:04:10;99403.59;;;3.73;88.48
71573;BME280;59408;51.032;9.410;2023-04-27T06:06:37;99395.38;;;3.83;88.73
71573;BME280;59408;51.032;9.410;2023-04-27T06:09:04;99397.41;;;3.97;87.89
71573;BME280;59408;51.032;9.410;2023-04-27T06:11:30;99397.31;;;4.02;85.73
71573;BME280;59408;51.032;9.410;2023-04-27T06:13:57;99403.03;;;4.00;87.17
71573;BME280;59408;51.032;9.410;2023-04-27T06:16:25;99395.75;;;4.01;87.54
71573;BME280;59408;51.032;9.410;2023-04-27T06:18:52;99404.22;;;4.13;88.24
71573;BME280;59408;51.032;9.410;2023-04-27T06:21:18;99396.91;;;4.37;88.12
71573;BME280;59408;51.032;9.410;2023-04-27T06:23:45;99403.81;;;4.48;87.54
71573;BME280;59408;51.032;9.410;2023-04-27T06:26:11;99412.81;;;4.62;87.77
71573;BME280;59408;51.032;9.410;2023-04-27T06:28:38;99411.13;;;4.67;88.94
71573;BME280;59408;51.032;9.410;2023-04-27T06:31:05;99420.34;;;4.84;87.24
71573;BME280;59408;51.032;9.410;2023-04-27T06:33:33;99420.09;;;5.05;81.28
71573;BME280;59408;51.032;9.410;2023-04-27T06:35:59;99420.59;;;5.07;76.41
71573;BME280;59408;51.032;9.410;2023-04-27T06:38:26;99422.78;;;5.23;79.77
71573;BME280;59408;51.032;9.410;2023-04-27T06:40:53;99422.88;;;5.18;82.96
71573;BME280;59408;51.032;9.410;2023-04-27T06:43:19;99423.94;;;5.36;83.77
71573;BME280;59408;51.032;9.410;2023-04-27T06:45:46;99433.00;;;5.45;81.40
71573;BME280;59408;51.032;9.410;2023-04-27T06:48:12;99438.66;;;5.62;81.40
71573;BME280;59408;51.032;9.410;2023-04-27T06:50:40;99429.94;;;5.65;77.04
71573;BME280;59408;51.032;9.410;2023-04-27T06:53:07;99440.22;;;5.50;79.31
71573;BME280;59408;51.032;9.410;2023-04-27T06:55:34;99441.91;;;5.46;80.81
71573;BME280;59408;51.032;9.410;2023-04-27T06:58:01;99438.44;;;5.59;79.21
71573;BME280;59408;51.032;9.410;2023-04-27T07:00:28;99435.53;;;5.55;78.06
71573;BME280;59408;51.032;9.410;2023-04-27T07:02:54;99437.53;;;5.82;79.13
71573;BME280;59408;51.032;9.410;2023-04-27T07:05:21;99432.56;;;6.17;77.27
71573;BME280;59408;51.032;9.410;2023-04-27T07:07:49;99437.06;;;6.62;76.54
71573;BME280;59408;51.032;9.410;2023-04-27T07:10:15;99440.53;;;6.90;72.85
71573;BME280;59408;51.032;9.410;2023-04-27T07:12:42;99432.50;;;6.99;72.00
71573;BME280;59408;51.032;9.410;2023-04-27T07:15:09;99436.81;;;7.22;75.16
71573;BME280;59408;51.032;9.410;2023-04-27T07:17:36;99445.66;;;7.27;71.07
71573;BME280;59408;51.032;9.410;2023-04-27T07:20:04;99448.38;;;7.27;66.53
71573;BME280;59408;51.032;9.410;2023-04-27T07:22:31;99450.22;;;7.18;67.19
71573;BME280;59408;51.032;9.410;2023-04-27T07:24:59;99455.88;;;7.08;69.87
71573;BME280;59408;51.032;9.410;2023-04-27T07:27:26;99454.34;;;7.16;68.18
71573;BME280;59408;51.032;9.410;2023-04-27T07:29:52;99451.69;;;7.24;67.38
71573;BME280;59408;51.032;9.410;2023-04-27T07:32:19;99448.59;;;7.31;66.73
71573;BME280;59408;51.032;9.410;2023-04-27T07:34:46;99441.44;;;7.35;67.92
71573;BME280;59408;51.032;9.410;2023-04-27T07:37:19;99446.88;;;7.57;68.30
71573;BME280;59408;51.032;9.410;2023-04-27T07:39:47;99432.69;;;7.83;63.79
71573;BME280;59408;51.032;9.410;2023-04-27T07:42:15;99431.31;;;8.02;64.35
71573;BME280;59408;51.032;9.410;2023-04-27T07:44:42;99434.63;;;8.22;64.38
71573;BME280;59408;51.032;9.410;2023-04-27T07:47:08;99437.91;;;8.50;63.86
71573;BME280;59408;51.032;9.410;2023-04-27T07:49:35;99448.84;;;8.67;62.20
71573;BME280;59408;51.032;9.410;2023-04-27T07:52:02;99445.53;;;8.79;63.97
71573;BME280;59408;51.032;9.410;2023-04-27T07:54:28;99440.50;;;9.29;59.54
71573;BME280;59408;51.032;9.410;2023-04-27T07:56:55;99443.84;;;9.43;57.92
71573;BME280;59408;51.032;9.410;2023-04-27T07:59:23;99441.28;;;9.64;58.50
71573;BME280;59408;51.032;9.410;2023-04-27T08:01:49;99437.28;;;9.18;59.99
71573;BME280;59408;51.032;9.410;2023-04-27T08:04:16;99436.63;;;9.38;62.35
71573;BME280;59408;51.032;9.410;2023-04-27T08:06:43;99438.38;;;9.69;59.10
71573;BME280;59408;51.032;9.410;2023-04-27T08:09:11;99439.22;;;9.43;57.44
71573;BME280;59408;51.032;9.410;2023-04-27T08:11:38;99430.56;;;9.41;59.90
71573;BME280;59408;51.032;9.410;2023-04-27T08:14:04;99435.59;;;9.95;61.66
71573;BME280;59408;51.032;9.410;2023-04-27T08:16:32;99427.41;;;10.41;58.90
71573;BME280;59408;51.032;9.410;2023-04-27T08:18:59;99429.97;;;10.46;56.07
71573;BME280;59408;51.032;9.410;2023-04-27T08:21:26;99427.25;;;10.76;60.07
71573;BME280;59408;51.032;9.410;2023-04-27T08:23:52;99422.84;;;10.92;56.83
71573;BME280;59408;51.032;9.410;2023-04-27T08:26:19;99419.59;;;11.19;57.16
71573;BME280;59408;51.032;9.410;2023-04-27T08:28:46;99418.50;;;11.32;56.68
71573;BME280;59408;51.032;9.410;2023-04-27T08:31:13;99419.31;;;11.66;56.08
71573;BME280;59408;51.032;9.410;2023-04-27T08:33:41;99419.78;;;12.13;55.66
71573;BME280;59408;51.032;9.410;2023-04-27T08:36:08;99411.06;;;12.20;54.52
71573;BME280;59408;51.032;9.410;2023-04-27T08:38:34;99411.91;;;12.11;53.10
71573;BME280;59408;51.032;9.410;2023-04-27T08:41:01;99416.06;;;12.30;54.59
71573;BME280;59408;51.032;9.410;2023-04-27T08:43:46;99412.41;;;12.14;49.52
71573;BME280;59408;51.032;9.410;2023-04-27T08:46:13;99416.00;;;12.05;50.42
71573;BME280;59408;51.032;9.410;2023-04-27T08:48:41;99409.28;;;12.03;50.70
71573;BME280;59408;51.032;9.410;2023-04-27T08:51:09;99407.34;;;12.03;49.61
71573;BME280;59408;51.032;9.410;2023-04-27T08:53:36;99405.47;;;12.16;50.10
71573;BME280;59408;51.032;9.410;2023-04-27T08:56:03;99413.75;;;11.62;50.53
71573;BME280;59408;51.032;9.410;2023-04-27T08:58:36;99415.09;;;12.01;51.46
71573;BME280;59408;51.032;9.410;2023-04-27T09:01:04;99416.75;;;12.39;50.56
71573;BME280;59408;51.032;9.410;2023-04-27T09:03:31;99415.81;;;12.96;52.13
71573;BME280;59408;51.032;9.410;2023-04-27T09:05:59;99412.81;;;13.13;50.51
71573;BME280;59408;51.032;9.410;2023-04-27T09:08:42;99416.75;;;13.40;48.78
71573;BME280;59408;51.032;9.410;2023-04-27T09:11:08;99418.00;;;13.30;49.68
71573;BME280;59408;51.032;9.410;2023-04-27T09:13:35;99407.56;;;13.20;49.85
71573;BME280;59408;51.032;9.410;2023-04-27T09:16:02;99413.06;;;12.96;48.83
71573;BME280;59408;51.032;9.410;2023-04-27T09:18:30;99409.06;;;12.93;48.68
71573;BME280;59408;51.032;9.410;2023-04-27T09:20:59;99405.47;;;13.29;51.08
71573;BME280;59408;51.032;9.410;2023-04-27T09:23:27;99416.72;;;13.00;50.41
71573;BME280;59408;51.032;9.410;2023-04-27T09:25:54;99418.47;;;12.43;51.94
71573;BME280;59408;51.032;9.410;2023-04-27T09:28:21;99421.41;;;12.14;51.00
71573;BME280;59408;51.032;9.410;2023-04-27T09:30:52;99409.34;;;12.27;50.40
71573;BME280;59408;51.032;9.410;2023-04-27T09:33:22;99403.47;;;11.26;50.23
71573;BME280;59408;51.032;9.410;2023-04-27T09:35:49;99404.19;;;11.35;53.74
71573;BME280;59408;51.032;9.410;2023-04-27T09:38:17;99411.66;;;12.37;54.05
71573;BME280;59408;51.032;9.410;2023-04-27T09:40:44;99400.69;;;12.49;49.77
71573;BME280;59408;51.032;9.410;2023-04-27T09:43:11;99406.78;;;12.95;47.70
71573;BME280;59408;51.032;9.410;2023-04-27T09:45:38;99403.13;;;13.03;50.48
71573;BME280;59408;51.032;9.410;2023-04-27T09:48:05;99405.59;;;13.60;48.17
71573;BME280;59408;51.032;9.410;2023-04-27T09:50:34;99397.69;;;13.87;51.02
71573;BME280;59408;51.032;9.410;2023-04-27T09:53:05;99390.75;;;13.62;48.23
71573;BME280;59408;51.032;9.410;2023-04-27T09:55:37;99396.91;;;14.18;45.34
71573;BME280;59408;51.032;9.410;2023-04-27T09:58:18;99396.06;;;13.70;44.44
71573;BME280;59408;51.032;9.410;2023-04-27T10:00:59;99388.75;;;13.74;48.67
71573;BME280;59408;51.032;9.410;2023-04-27T10:03:38;99390.94;;;13.84;45.92
71573;BME280;59408;51.032;9.410;2023-04-27T10:06:34;99396.91;;;14.18;45.15
71573;BME280;59408;51.032;9.410;2023-04-27T10:09:09;99391.53;;;14.88;45.91
71573;BME280;59408;51.032;9.410;2023-04-27T10:11:40;99395.13;;;14.73;45.00
71573;BME280;59408;51.032;9.410;2023-04-27T10:14:08;99384.34;;;14.01;48.50
71573;BME280;59408;51.032;9.410;2023-04-27T10:16:42;99385.38;;;15.29;48.02
71573;BME280;59408;51.032;9.410;2023-04-27T10:19:09;99392.50;;;14.45;43.30
71573;BME280;59408;51.032;9.410;2023-04-27T10:21:36;99388.75;;;15.03;46.41
71573;BME280;59408;51.032;9.410;2023-04-27T10:24:06;99382.78;;;15.36;45.47
71573;BME280;59408;51.032;9.410;2023-04-27T10:26:33;99382.34;;;15.34;44.05
71573;BME280;59408;51.032;9.410;2023-04-27T10:29:07;99382.50;;;14.87;44.36
71573;BME280;59408;51.032;9.410;2023-04-27T10:31:34;99368.94;;;15.33;46.97
71573;BME280;59408;51.032;9.410;2023-04-27T10:34:06;99371.31;;;15.54;44.71
71573;BME280;59408;51.032;9.410;2023-04-27T10:36:34;99371.56;;;15.87;44.89
71573;BME280;59408;51.032;9.410;2023-04-27T10:39:01;99360.53;;;15.83;44.65
71573;BME280;59408;51.032;9.410;2023-04-27T10:41:33;99374.75;;;16.35;43.00
71573;BME280;59408;51.032;9.410;2023-04-27T10:44:13;99359.13;;;16.65;42.74
71573;BME280;59408;51.032;9.410;2023-04-27T10:46:49;99363.75;;;15.28;40.62
71573;BME280;59408;51.032;9.410;2023-04-27T10:49:15;99370.69;;;15.41;42.83
71573;BME280;59408;51.032;9.410;2023-04-27T10:51:42;99361.50;;;15.72;41.81
71573;BME280;59408;51.032;9.410;2023-04-27T10:54:09;99358.94;;;15.82;39.32
71573;BME280;59408;51.032;9.410;2023-04-27T10:56:36;99360.28;;;16.15;42.54
71573;BME280;59408;51.032;9.410;2023-04-27T10:59:04;99351.34;;;16.71;41.95
71573;BME280;59408;51.032;9.410;2023-04-27T11:01:32;99354.28;;;17.15;41.30
71573;BME280;59408;51.032;9.410;2023-04-27T11:04:00;99351.28;;;16.93;38.73
71573;BME280;59408;51.032;9.410;2023-04-27T11:06:27;99351.13;;;16.83;38.00
71573;BME280;59408;51.032;9.410;2023-04-27T11:08:54;99344.03;;;17.45;41.71
71573;BME280;59408;51.032;9.410;2023-04-27T11:11:21;99337.84;;;17.92;40.98
71573;BME280;59408;51.032;9.410;2023-04-27T11:13:48;99330.72;;;17.91;37.40
71573;BME280;59408;51.032;9.410;2023-04-27T11:16:15;99343.44;;;18.51;37.51
71573;BME280;59408;51.032;9.410;2023-04-27T11:18:43;99336.88;;;18.76;37.45
71573;BME280;59408;51.032;9.410;2023-04-27T11:21:11;99332.41;;;18.06;36.71
71573;BME280;59408;51.032;9.410;2023-04-27T11:23:39;99342.72;;;18.10;39.99
71573;BME280;59408;51.032;9.410;2023-04-27T11:26:09;99334.00;;;18.08;40.14
71573;BME280;59408;51.032;9.410;2023-04-27T11:28:36;99331.56;;;17.58;37.07
71573;BME280;59408;51.032;9.410;2023-04-27T11:31:03;99329.66;;;16.69;38.46
71573;BME280;59408;51.032;9.410;2023-04-27T11:33:30;99332.75;;;17.98;41.27
71573;BME280;59408;51.032;9.410;2023-04-27T11:35:58;99324.44;;;17.20;37.41
71573;BME280;59408;51.032;9.410;2023-04-27T11:38:25;99328.81;;;16.39;37.31
71573;BME280;59408;51.032;9.410;2023-04-27T11:40:59;99325.25;;;15.89;39.02
71573;BME280;59408;51.032;9.410;2023-04-27T11:43:27;99319.84;;;16.45;38.02
71573;BME280;59408;51.032;9.410;2023-04-27T11:45:54;99322.44;;;16.08;38.32
71573;BME280;59408;51.032;9.410;2023-04-27T11:48:21;99316.50;;;15.83;41.93
71573;BME280;59408;51.032;9.410;2023-04-27T11:50:49;99328.66;;;14.83;40.93
71573;BME280;59408;51.032;9.410;2023-04-27T11:53:27;99328.47;;;15.11;39.95
71573;BME280;59408;51.032;9.410;2023-04-27T11:55:54;99328.91;;;15.74;39.46
71573;BME280;59408;51.032;9.410;2023-04-27T11:58:21;99315.97;;;17.06;42.24
71573;BME280;59408;51.032;9.410;2023-04-27T12:00:47;99313.38;;;17.54;41.37
71573;BME280;59408;51.032;9.410;2023-04-27T12:03:14;99306.81;;;18.10;38.92
71573;BME280;59408;51.032;9.410;2023-04-27T12:05:46;99320.38;;;18.32;35.34
71573;BME280;59408;51.032;9.410;2023-04-27T12:08:13;99314.41;;;17.39;36.88
71573;BME280;59408;51.032;9.410;2023-04-27T12:10:41;99322.34;;;16.80;36.60
71573;BME280;59408;51.032;9.410;2023-04-27T12:13:08;99317.34;;;17.19;39.23
71573;BME280;59408;51.032;9.410;2023-04-27T12:15:34;99314.88;;;16.54;38.02
71573;BME280;59408;51.032;9.410;2023-04-27T12:18:01;99310.97;;;16.85;38.34
71573;BME280;59408;51.032;9.410;2023-04-27T12:20:28;99313.13;;;17.32;37.20
71573;BME280;59408;51.032;9.410;2023-04-27T12:22:55;99312.75;;;16.71;37.29
71573;BME280;59408;51.032;9.410;2023-04-27T12:25:22;99321.97;;;16.82;35.94
71573;BME280;59408;51.032;9.410;2023-04-27T12:27:50;99317.28;;;16.30;37.44
71573;BME280;59408;51.032;9.410;2023-04-27T12:30:17;99317.75;;;16.35;39.67
71573;BME280;59408;51.032;9.410;2023-04-27T12:32:44;99313.50;;;16.98;39.18
71573;BME280;59408;51.032;9.410;2023-04-27T12:35:12;99298.41;;;18.47;37.91
71573;BME280;59408;51.032;9.410;2023-04-27T12:37:38;99303.94;;;18.47;37.58
71573;BME280;59408;51.032;9.410;2023-04-27T12:40:06;99303.28;;;17.68;35.85
71573;BME280;59408;51.032;9.410;2023-04-27T12:42:33;99299.59;;;18.46;38.50
71573;BME280;59408;51.032;9.410;2023-04-27T12:45:01;99304.88;;;18.65;35.56
71573;BME280;59408;51.032;9.410;2023-04-27T12:47:28;99306.69;;;17.92;36.03
71573;BME280;59408;51.032;9.410;2023-04-27T12:50:14;99311.16;;;16.43;38.37
71573;BME280;59408;51.032;9.410;2023-04-27T12:52:41;99310.13;;;17.45;36.92
71573;BME280;59408;51.032;9.410;2023-04-27T12:55:08;99317.72;;;17.21;38.52
71573;BME280;59408;51.032;9.410;2023-04-27T12:57:55;99317.41;;;18.04;37.08
71573;BME280;59408;51.032;9.410;2023-04-27T13:00:23;99305.88;;;17.91;36.11
71573;BME280;59408;51.032;9.410;2023-04-27T13:02:50;99319.25;;;18.37;36.84
71573;BME280;59408;51.032;9.410;2023-04-27T13:05:17;99302.66;;;17.86;38.50
71573;BME280;59408;51.032;9.410;2023-04-27T13:07:43;99304.94;;;18.24;35.66